createdAt,value
2022-08-27T00:00:52.765Z,100080.75
2022-08-27T00:03:21.257Z,100082.38
2022-08-27T00:05:50.058Z,100086.44
2022-08-27T00:08:18.387Z,100079.28
2022-08-27T00:10:46.863Z,100091.41
2022-08-27T00:13:15.942Z,100083.41
2022-08-27T00:15:44.687Z,100088.31
2022-08-27T00:18:22.055Z,100083.03
2022-08-27T00:20:51.736Z,100068.66
2022-08-27T00:23:20.138Z,100076.44
2022-08-27T00:25:48.513Z,100077.09
2022-08-27T00:28:16.946Z,100069.63
2022-08-27T00:30:46.621Z,100072.53
2022-08-27T00:33:16.385Z,100070.88
2022-08-27T00:35:44.752Z,100071.34
2022-08-27T00:38:13.145Z,100063.59
2022-08-27T00:40:44.096Z,100063.81
2022-08-27T00:43:12.690Z,100053.47
2022-08-27T00:45:46.361Z,100056.09
2022-08-27T00:48:20.378Z,100061.97
2022-08-27T00:50:54.695Z,100053.44
2022-08-27T00:53:29.107Z,100053.03
2022-08-27T00:56:01.265Z,100051.63
2022-08-27T00:58:32.728Z,100054.53
2022-08-27T01:01:03.151Z,100061.22
2022-08-27T01:03:33.088Z,100063.09
2022-08-27T01:06:03.990Z,100058.34
2022-08-27T01:08:39.748Z,100061.59
2022-08-27T01:11:09.316Z,100062.66
2022-08-27T01:14:00.410Z,100063.56
2022-08-27T01:16:35.065Z,100050.66
2022-08-27T01:19:08.566Z,100051.66
2022-08-27T01:21:46.669Z,100056.94
2022-08-27T01:24:31.404Z,100054.75
2022-08-27T01:27:02.129Z,100053.97
2022-08-27T01:29:31.685Z,100050.94
2022-08-27T01:32:09.378Z,100051.63
2022-08-27T01:34:38.442Z,100049.91
2022-08-27T01:37:08.726Z,100049.13
2022-08-27T01:39:44.556Z,100054.41
2022-08-27T01:42:18.053Z,100044.94
2022-08-27T01:44:51.925Z,100040.09
2022-08-27T01:47:23.738Z,100048.47
2022-08-27T01:50:00.294Z,100039.38
2022-08-27T01:52:31.291Z,100045.50
2022-08-27T01:55:01.869Z,100041.19
2022-08-27T01:57:31.316Z,100046.03
2022-08-27T01:59:59.862Z,100061.91
2022-08-27T02:02:28.383Z,100051.94
2022-08-27T02:04:56.816Z,100048.97
2022-08-27T02:07:25.289Z,100052.78
2022-08-27T02:09:53.834Z,100053.31
2022-08-27T02:12:23.476Z,100056.31
2022-08-27T02:14:51.774Z,100044.72
2022-08-27T02:17:20.199Z,100052.28
2022-08-27T02:19:49.541Z,100052.03
2022-08-27T02:22:17.902Z,100048.56
2022-08-27T02:24:46.257Z,100045.22
2022-08-27T02:27:14.492Z,100035.13
2022-08-27T02:29:44.451Z,100041.16
2022-08-27T02:32:17.599Z,100041.78
2022-08-27T02:34:52.695Z,100040.09
2022-08-27T02:37:22.278Z,100041.94
2022-08-27T02:39:50.802Z,100038.59
2022-08-27T02:42:19.117Z,100036.72
2022-08-27T02:44:48.996Z,100033.47
2022-08-27T02:47:17.673Z,100038.06
2022-08-27T02:49:46.085Z,100036.34
2022-08-27T02:52:14.409Z,100029.28
2022-08-27T02:54:44.790Z,100020.50
2022-08-27T02:57:13.838Z,100028.03
2022-08-27T02:59:42.130Z,100029.09
2022-08-27T03:02:12.238Z,100029.63
2022-08-27T03:04:40.764Z,100029.16
2022-08-27T03:07:12.466Z,100029.84
2022-08-27T03:09:47.227Z,100027.31
2022-08-27T03:12:15.930Z,100023.56
2022-08-27T03:14:44.613Z,100021.34
2022-08-27T03:17:31.845Z,100028.34
2022-08-27T03:20:01.570Z,100030.22
2022-08-27T03:22:29.837Z,100028.53
2022-08-27T03:24:58.170Z,100025.09
2022-08-27T03:27:26.634Z,100026.88
2022-08-27T03:29:54.962Z,100026.44
2022-08-27T03:32:24.740Z,100025.69
2022-08-27T03:34:53.038Z,100034.16
2022-08-27T03:37:21.345Z,100026.22
2022-08-27T03:39:49.646Z,100038.53
2022-08-27T03:42:18.063Z,100030.59
2022-08-27T03:44:46.325Z,100027.50
2022-08-27T03:47:14.865Z,100030.47
2022-08-27T03:49:44.704Z,100027.59
2022-08-27T03:52:14.268Z,100032.13
2022-08-27T03:54:43.124Z,100035.88
2022-08-27T03:57:11.761Z,100038.06
2022-08-27T03:59:40.381Z,100024.69
2022-08-27T04:02:08.890Z,100032.25
2022-08-27T04:04:37.804Z,100029.97
2022-08-27T04:07:07.437Z,100034.59
2022-08-27T04:09:35.773Z,100023.66
2022-08-27T04:12:04.773Z,100025.41
2022-08-27T04:14:33.900Z,100033.00
2022-08-27T04:17:02.296Z,100034.31
2022-08-27T04:19:33.053Z,100035.38
2022-08-27T04:22:03.374Z,100035.66
2022-08-27T04:24:36.091Z,100038.47
2022-08-27T04:27:05.734Z,100042.16
2022-08-27T04:29:35.229Z,100041.84
2022-08-27T04:32:05.346Z,100042.91
2022-08-27T04:34:34.092Z,100046.81
2022-08-27T04:37:02.428Z,100039.97
2022-08-27T04:39:33.578Z,100042.75
2022-08-27T04:42:02.897Z,100044.34
2022-08-27T04:44:34.495Z,100041.91
2022-08-27T04:47:06.209Z,100045.81
2022-08-27T04:49:34.964Z,100050.19
2022-08-27T04:52:05.020Z,100050.19
2022-08-27T04:54:35.319Z,100050.94
2022-08-27T04:57:05.441Z,100044.75
2022-08-27T04:59:34.798Z,100047.50
2022-08-27T05:02:09.230Z,100046.81
2022-08-27T05:04:40.545Z,100055.88
2022-08-27T05:07:11.256Z,100056.22
2022-08-27T05:09:41.566Z,100055.28
2022-08-27T05:12:10.158Z,100055.38
2022-08-27T05:14:38.453Z,100064.28
2022-08-27T05:17:06.897Z,100065.41
2022-08-27T05:19:35.246Z,100067.78
2022-08-27T05:22:03.804Z,100064.31
2022-08-27T05:24:32.458Z,100066.66
2022-08-27T05:27:02.094Z,100061.75
2022-08-27T05:29:31.600Z,100064.56
2022-08-27T05:31:59.960Z,100068.28
2022-08-27T05:34:29.829Z,100057.75
2022-08-27T05:36:58.813Z,100068.22
2022-08-27T05:39:27.108Z,100062.22
2022-08-27T05:41:58.610Z,100064.19
2022-08-27T05:44:44.530Z,100075.66
2022-08-27T05:47:12.861Z,100074.56
2022-08-27T05:49:41.169Z,100073.38
2022-08-27T05:52:11.059Z,100081.88
2022-08-27T05:54:39.752Z,100076.56
2022-08-27T05:57:08.368Z,100080.03
2022-08-27T05:59:56.277Z,100081.41
2022-08-27T06:02:25.280Z,100077.59
2022-08-27T06:04:53.802Z,100077.84
2022-08-27T06:07:22.447Z,100081.31
2022-08-27T06:09:50.991Z,100086.22
2022-08-27T06:12:19.382Z,100089.38
2022-08-27T06:14:57.927Z,100101.75
2022-08-27T06:17:26.308Z,100093.31
2022-08-27T06:19:54.754Z,100101.75
2022-08-27T06:22:23.129Z,100108.00
2022-08-27T06:24:51.836Z,100104.00
2022-08-27T06:27:21.413Z,100113.63
2022-08-27T06:29:49.724Z,100112.28
2022-08-27T06:32:19.929Z,100118.38
2022-08-27T06:34:48.634Z,100114.75
2022-08-27T06:37:17.114Z,100114.28
2022-08-27T06:39:45.576Z,100114.03
2022-08-27T06:42:14.453Z,100114.59
2022-08-27T06:44:43.232Z,100129.75
2022-08-27T06:47:11.801Z,100124.78
2022-08-27T06:49:46.360Z,100119.97
2022-08-27T06:52:16.199Z,100125.44
2022-08-27T06:54:44.975Z,100122.03
2022-08-27T06:57:13.328Z,100127.19
2022-08-27T06:59:41.715Z,100121.94
2022-08-27T07:02:10.275Z,100119.97
2022-08-27T07:04:38.923Z,100122.63
2022-08-27T07:07:11.926Z,100116.91
2022-08-27T07:09:40.753Z,100131.16
2022-08-27T07:12:09.284Z,100126.47
2022-08-27T07:14:38.383Z,100130.63
2022-08-27T07:17:11.367Z,100129.44
2022-08-27T07:19:44.353Z,100119.31
2022-08-27T07:22:14.326Z,100129.28
2022-08-27T07:24:42.783Z,100128.09
2022-08-27T07:27:11.144Z,100121.38
2022-08-27T07:29:39.572Z,100116.00
2022-08-27T07:32:08.018Z,100120.75
2022-08-27T07:34:36.452Z,100113.31
2022-08-27T07:37:05.203Z,100114.22
2022-08-27T07:39:34.973Z,100110.84
2022-08-27T07:42:21.081Z,100113.59
2022-08-27T07:44:49.918Z,100120.03
2022-08-27T07:47:18.569Z,100123.59
2022-08-27T07:49:46.898Z,100127.03
2022-08-27T07:52:17.157Z,100138.03
2022-08-27T07:54:47.386Z,100137.47
2022-08-27T07:57:15.942Z,100144.22
2022-08-27T07:59:44.611Z,100143.88
2022-08-27T08:02:13.816Z,100148.47
2022-08-27T08:04:42.310Z,100139.00
2022-08-27T08:07:10.657Z,100155.84
2022-08-27T08:09:39.413Z,100167.72
2022-08-27T08:12:09.266Z,100176.47
2022-08-27T08:14:38.168Z,100172.34
2022-08-27T08:17:10.455Z,100187.00
2022-08-27T08:19:40.324Z,100186.16
2022-08-27T08:22:09.486Z,100194.81
2022-08-27T08:24:37.848Z,100200.22
2022-08-27T08:27:08.128Z,100204.59
2022-08-27T08:29:37.950Z,100211.44
2022-08-27T08:32:07.520Z,100200.16
2022-08-27T08:34:36.815Z,100203.28
2022-08-27T08:37:07.554Z,100204.47
2022-08-27T08:39:38.515Z,100212.00
2022-08-27T08:42:23.849Z,100208.84
2022-08-27T08:44:53.951Z,100204.59
2022-08-27T08:47:29.359Z,100202.84
2022-08-27T08:50:05.981Z,100208.88
2022-08-27T08:52:46.766Z,100213.59
2022-08-27T08:55:33.073Z,100216.91
2022-08-27T08:58:20.273Z,100224.34
2022-08-27T09:00:56.530Z,100230.84
2022-08-27T09:03:25.642Z,100237.91
2022-08-27T09:06:00.468Z,100242.25
2022-08-27T09:08:38.899Z,100242.63
2022-08-27T09:11:19.026Z,100240.00
2022-08-27T09:13:55.906Z,100238.22
2022-08-27T09:16:24.813Z,100238.78
2022-08-27T09:18:53.569Z,100239.56
2022-08-27T09:21:33.157Z,100241.97
2022-08-27T09:24:08.888Z,100241.59
2022-08-27T09:26:43.018Z,100242.56
2022-08-27T09:29:17.066Z,100237.44
2022-08-27T09:31:50.641Z,100239.00
2022-08-27T09:34:18.987Z,100249.34
2022-08-27T09:37:03.433Z,100254.44
2022-08-27T09:39:40.678Z,100255.84
2022-08-27T09:42:09.763Z,100261.31
2022-08-27T09:44:53.427Z,100264.06
2022-08-27T09:47:22.896Z,100261.16
2022-08-27T09:50:06.821Z,100261.69
2022-08-27T09:52:51.247Z,100267.06
2022-08-27T09:55:37.869Z,100260.09
2022-08-27T09:58:19.969Z,100257.44
2022-08-27T10:00:58.837Z,100263.06
2022-08-27T10:03:31.351Z,100260.28
2022-08-27T10:06:01.983Z,100253.63
2022-08-27T10:08:39.396Z,100255.31
2022-08-27T10:11:15.455Z,100257.63
2022-08-27T10:13:54.745Z,100261.59
2022-08-27T10:16:47.183Z,100266.75
2022-08-27T10:19:33.566Z,100256.16
2022-08-27T10:22:12.570Z,100242.66
2022-08-27T10:24:56.084Z,100258.59
2022-08-27T10:27:33.918Z,100254.53
2022-08-27T10:30:07.483Z,100260.88
2022-08-27T10:33:02.922Z,100262.41
2022-08-27T10:35:48.014Z,100262.94
2022-08-27T10:38:31.473Z,100262.31
2022-08-27T10:41:05.063Z,100254.97
2022-08-27T10:44:08.549Z,100262.91
2022-08-27T10:46:54.490Z,100260.06
2022-08-27T10:49:33.036Z,100264.47
2022-08-27T10:52:18.288Z,100265.09
2022-08-27T10:54:54.594Z,100249.78
2022-08-27T10:57:56.509Z,100252.19
2022-08-27T11:00:41.128Z,100266.31
2022-08-27T11:03:15.074Z,100265.00
2022-08-27T11:05:48.503Z,100265.28
2022-08-27T11:08:24.523Z,100264.47
2022-08-27T11:10:58.094Z,100255.59
2022-08-27T11:13:34.727Z,100258.06
2022-08-27T11:16:16.052Z,100256.50
2022-08-27T11:18:52.369Z,100249.16
2022-08-27T11:21:34.615Z,100252.91
2022-08-27T11:24:20.772Z,100245.03
2022-08-27T11:26:54.241Z,100233.16
2022-08-27T11:29:31.470Z,100226.31
2022-08-27T11:32:11.441Z,100239.25
2022-08-27T11:34:45.594Z,100235.09
2022-08-27T11:37:45.998Z,100221.59
2022-08-27T11:40:38.155Z,100232.53
2022-08-27T11:43:09.699Z,100225.97
2022-08-27T11:45:53.841Z,100223.72
2022-08-27T11:48:26.327Z,100232.25
2022-08-27T11:51:00.042Z,100231.13
2022-08-27T11:53:34.095Z,100226.25
2022-08-27T11:56:15.821Z,100226.13
2022-08-27T11:58:53.063Z,100215.84
2022-08-27T12:01:28.554Z,100227.78
2022-08-27T12:04:07.428Z,100221.94
2022-08-27T12:06:44.771Z,100213.13
2022-08-27T12:09:20.783Z,100208.53
2022-08-27T12:12:04.268Z,100205.59
2022-08-27T12:14:47.879Z,100205.63
2022-08-27T12:17:30.338Z,100201.84
2022-08-27T12:20:15.576Z,100199.44
2022-08-27T12:23:16.211Z,100194.56
2022-08-27T12:26:01.397Z,100198.63
2022-08-27T12:28:29.818Z,100186.16
2022-08-27T12:30:58.741Z,100190.25
2022-08-27T12:33:34.369Z,100184.94
2022-08-27T12:36:11.940Z,100175.53
2022-08-27T12:38:50.524Z,100180.34
2022-08-27T12:41:44.142Z,100184.97
2022-08-27T12:44:16.619Z,100183.84
2022-08-27T12:46:50.870Z,100178.78
2022-08-27T12:49:38.460Z,100167.03
2022-08-27T12:52:32.758Z,100165.13
2022-08-27T12:55:15.152Z,100162.13
2022-08-27T12:57:56.210Z,100164.72
2022-08-27T13:00:26.508Z,100167.50
2022-08-27T13:03:22.190Z,100154.59
2022-08-27T13:05:56.709Z,100157.38
2022-08-27T13:08:28.494Z,100158.75
2022-08-27T13:10:58.763Z,100151.28
2022-08-27T13:13:28.635Z,100154.50
2022-08-27T13:16:02.482Z,100150.75
2022-08-27T13:18:31.219Z,100148.06
2022-08-27T13:21:07.396Z,100156.22
2022-08-27T13:23:36.333Z,100155.44
2022-08-27T13:26:09.276Z,100147.88
2022-08-27T13:28:42.677Z,100156.00
2022-08-27T13:31:12.621Z,100151.44
2022-08-27T13:33:42.948Z,100151.16
2022-08-27T13:36:12.281Z,100147.72
2022-08-27T13:38:49.779Z,100148.09
2022-08-27T13:41:31.506Z,100145.69
2022-08-27T13:44:09.731Z,100142.59
2022-08-27T13:46:48.791Z,100138.13
2022-08-27T13:49:23.006Z,100138.13
2022-08-27T13:52:01.152Z,100128.38
2022-08-27T13:54:29.967Z,100130.25
2022-08-27T13:57:08.381Z,100131.03
2022-08-27T13:59:43.305Z,100140.03
2022-08-27T14:02:27.250Z,100133.69
2022-08-27T14:05:12.189Z,100137.53
2022-08-27T14:07:47.402Z,100132.72
2022-08-27T14:10:35.559Z,100127.88
2022-08-27T14:13:08.148Z,100129.44
2022-08-27T14:15:41.985Z,100128.81
2022-08-27T14:18:42.502Z,100129.31
2022-08-27T14:21:15.000Z,100139.88
2022-08-27T14:23:43.333Z,100130.25
2022-08-27T14:26:11.902Z,100127.00
2022-08-27T14:28:40.489Z,100127.00
2022-08-27T14:31:10.237Z,100133.88
2022-08-27T14:33:38.683Z,100127.00
2022-08-27T14:36:08.839Z,100119.78
2022-08-27T14:38:41.212Z,100124.31
2022-08-27T14:41:09.913Z,100121.00
2022-08-27T14:43:38.249Z,100121.72
2022-08-27T14:46:13.688Z,100122.34
2022-08-27T14:48:50.517Z,100124.19
2022-08-27T14:51:26.448Z,100126.25
2022-08-27T14:53:55.837Z,100122.97
2022-08-27T14:56:25.812Z,100122.44
2022-08-27T14:58:54.661Z,100130.03
2022-08-27T15:01:27.059Z,100133.88
2022-08-27T15:03:55.761Z,100127.44
2022-08-27T15:06:25.162Z,100118.78
2022-08-27T15:08:54.908Z,100120.84
2022-08-27T15:11:27.495Z,100118.44
2022-08-27T15:13:56.992Z,100116.91
2022-08-27T15:16:33.869Z,100116.97
2022-08-27T15:19:03.127Z,100114.59
2022-08-27T15:21:32.039Z,100118.22
2022-08-27T15:24:03.606Z,100119.94
2022-08-27T15:26:34.757Z,100117.88
2022-08-27T15:29:06.528Z,100120.69
2022-08-27T15:31:36.949Z,100117.91
2022-08-27T15:34:06.482Z,100123.75
2022-08-27T15:36:35.204Z,100121.13
2022-08-27T15:39:05.189Z,100120.53
2022-08-27T15:41:38.738Z,100125.59
2022-08-27T15:44:14.970Z,100118.34
2022-08-27T15:46:47.039Z,100121.91
2022-08-27T15:49:16.666Z,100119.69
2022-08-27T15:51:45.340Z,100117.28
2022-08-27T15:54:13.868Z,100120.78
2022-08-27T15:56:42.212Z,100104.69
2022-08-27T15:59:10.708Z,100109.16
2022-08-27T16:01:40.133Z,100122.19
2022-08-27T16:04:10.443Z,100113.47
2022-08-27T16:06:39.085Z,100113.06
2022-08-27T16:09:07.653Z,100118.94
2022-08-27T16:11:36.221Z,100114.50
2022-08-27T16:14:04.813Z,100115.03
2022-08-27T16:16:34.618Z,100113.03
2022-08-27T16:19:06.236Z,100110.81
2022-08-27T16:21:36.655Z,100119.00
2022-08-27T16:24:09.009Z,100124.25
2022-08-27T16:26:39.641Z,100127.47
2022-08-27T16:29:09.517Z,100120.22
2022-08-27T16:31:38.260Z,100117.72
2022-08-27T16:34:16.058Z,100123.00
2022-08-27T16:36:47.736Z,100114.66
2022-08-27T16:39:16.336Z,100128.19
2022-08-27T16:41:44.749Z,100125.72
2022-08-27T16:44:13.430Z,100118.00
2022-08-27T16:46:41.906Z,100112.28
2022-08-27T16:49:28.299Z,100106.81
2022-08-27T16:51:57.984Z,100106.59
2022-08-27T16:54:26.500Z,100125.00
2022-08-27T16:56:54.809Z,100115.81
2022-08-27T16:59:23.076Z,100112.25
2022-08-27T17:01:53.737Z,100109.50
2022-08-27T17:04:29.599Z,100112.31
2022-08-27T17:07:02.141Z,100112.06
2022-08-27T17:09:32.278Z,100101.69
2022-08-27T17:12:04.366Z,100107.25
2022-08-27T17:14:37.780Z,100111.09
2022-08-27T17:17:08.208Z,100112.13
2022-08-27T17:19:36.993Z,100112.78
2022-08-27T17:22:09.452Z,100105.78
2022-08-27T17:24:37.888Z,100112.72
2022-08-27T17:27:06.743Z,100119.66
2022-08-27T17:29:35.118Z,100114.59
2022-08-27T17:32:05.121Z,100114.38
2022-08-27T17:34:33.649Z,100117.91
2022-08-27T17:37:02.467Z,100103.53
2022-08-27T17:39:32.196Z,100103.53
2022-08-27T17:42:00.737Z,100109.91
2022-08-27T17:44:35.591Z,100109.66
2022-08-27T17:47:08.949Z,100109.50
2022-08-27T17:49:38.013Z,100115.59
2022-08-27T17:52:15.269Z,100111.47
2022-08-27T17:54:47.691Z,100113.13
2022-08-27T17:57:19.053Z,100109.28
2022-08-27T17:59:47.749Z,100111.06
2022-08-27T18:02:21.718Z,100110.09
2022-08-27T18:04:50.258Z,100114.56
2022-08-27T18:07:19.217Z,100111.38
2022-08-27T18:09:50.033Z,100118.22
2022-08-27T18:12:23.397Z,100123.81
2022-08-27T18:15:01.746Z,100117.47
2022-08-27T18:17:30.290Z,100121.66
2022-08-27T18:19:59.961Z,100125.78
2022-08-27T18:22:28.512Z,100127.34
2022-08-27T18:25:05.950Z,100131.81
2022-08-27T18:27:36.274Z,100132.41
2022-08-27T18:30:06.753Z,100128.81
2022-08-27T18:32:35.184Z,100122.13
2022-08-27T18:35:12.370Z,100129.72
2022-08-27T18:37:41.205Z,100126.03
2022-08-27T18:40:14.179Z,100127.06
2022-08-27T18:42:43.735Z,100128.22
2022-08-27T18:45:17.334Z,100123.66
2022-08-27T18:47:46.469Z,100128.34
2022-08-27T18:50:20.427Z,100122.63
2022-08-27T18:52:52.057Z,100130.41
2022-08-27T18:55:27.428Z,100135.97
2022-08-27T18:57:56.417Z,100132.44
2022-08-27T19:00:25.112Z,100130.41
2022-08-27T19:02:54.142Z,100139.00
2022-08-27T19:05:26.919Z,100139.81
2022-08-27T19:07:56.561Z,100129.66
2022-08-27T19:10:27.048Z,100132.75
2022-08-27T19:12:55.977Z,100134.31
2022-08-27T19:15:24.427Z,100143.28
2022-08-27T19:17:56.778Z,100141.09
2022-08-27T19:20:27.379Z,100148.25
2022-08-27T19:22:55.667Z,100151.53
2022-08-27T19:25:25.571Z,100151.59
2022-08-27T19:27:54.446Z,100153.72
2022-08-27T19:30:23.400Z,100143.53
2022-08-27T19:32:54.768Z,100147.41
2022-08-27T19:35:23.530Z,100151.47
2022-08-27T19:37:53.478Z,100149.22
2022-08-27T19:40:23.291Z,100156.22
2022-08-27T19:42:53.131Z,100153.63
2022-08-27T19:45:23.673Z,100158.47
2022-08-27T19:47:53.276Z,100156.91
2022-08-27T19:50:23.583Z,100156.78
2022-08-27T19:52:53.007Z,100159.63
2022-08-27T19:55:22.228Z,100166.53
2022-08-27T19:57:51.881Z,100161.28
2022-08-27T20:00:23.084Z,100159.59
2022-08-27T20:02:51.555Z,100159.25
2022-08-27T20:05:21.177Z,100156.38
2022-08-27T20:07:51.380Z,100158.72
2022-08-27T20:10:36.684Z,100157.72
2022-08-27T20:13:07.828Z,100160.09
2022-08-27T20:15:38.023Z,100156.84
2022-08-27T20:18:07.519Z,100155.22
2022-08-27T20:20:37.753Z,100156.63
2022-08-27T20:23:06.972Z,100152.81
2022-08-27T20:25:37.191Z,100149.38
2022-08-27T20:28:28.192Z,100155.72
2022-08-27T20:30:57.901Z,100161.00
2022-08-27T20:33:27.021Z,100168.34
2022-08-27T20:35:56.484Z,100160.97
2022-08-27T20:38:24.839Z,100159.50
2022-08-27T20:40:53.201Z,100163.81
2022-08-27T20:43:23.061Z,100170.31
2022-08-27T20:45:51.642Z,100170.72
2022-08-27T20:48:20.024Z,100171.75
2022-08-27T20:50:48.769Z,100174.00
2022-08-27T20:53:17.250Z,100174.63
2022-08-27T20:55:45.540Z,100173.75
2022-08-27T20:58:31.981Z,100177.75
2022-08-27T21:01:02.300Z,100178.00
2022-08-27T21:03:30.672Z,100183.13
2022-08-27T21:05:59.365Z,100178.06
2022-08-27T21:08:27.803Z,100176.41
2022-08-27T21:10:58.351Z,100175.22
2022-08-27T21:13:28.871Z,100175.16
2022-08-27T21:15:57.369Z,100174.75
2022-08-27T21:18:29.970Z,100177.56
2022-08-27T21:20:58.843Z,100172.50
2022-08-27T21:23:27.991Z,100179.00
2022-08-27T21:25:57.086Z,100176.13
2022-08-27T21:28:25.421Z,100173.91
2022-08-27T21:30:53.930Z,100181.91
2022-08-27T21:33:22.447Z,100174.19
2022-08-27T21:35:52.164Z,100177.28
2022-08-27T21:38:20.578Z,100183.00
2022-08-27T21:40:48.917Z,100181.78
2022-08-27T21:43:17.201Z,100178.72
2022-08-27T21:45:45.554Z,100179.94
2022-08-27T21:48:14.118Z,100187.94
2022-08-27T21:50:42.924Z,100185.47
2022-08-27T21:53:12.661Z,100183.31
2022-08-27T21:55:41.289Z,100184.97
2022-08-27T21:58:10.432Z,100181.50
2022-08-27T22:00:44.479Z,100183.56
2022-08-27T22:03:14.841Z,100178.47
2022-08-27T22:05:45.624Z,100181.31
2022-08-27T22:08:17.953Z,100175.81
2022-08-27T22:10:49.546Z,100176.22
2022-08-27T22:13:18.014Z,100174.00
2022-08-27T22:15:46.381Z,100167.72
2022-08-27T22:18:15.197Z,100167.28
2022-08-27T22:20:44.562Z,100169.34
2022-08-27T22:23:15.461Z,100165.91
2022-08-27T22:25:45.019Z,100167.50
2022-08-27T22:28:15.240Z,100168.91
2022-08-27T22:30:44.731Z,100169.91
2022-08-27T22:33:14.125Z,100158.91
2022-08-27T22:35:42.720Z,100160.72
2022-08-27T22:38:11.653Z,100168.25
2022-08-27T22:40:41.725Z,100165.63
2022-08-27T22:43:10.569Z,100156.84
2022-08-27T22:45:38.876Z,100163.75
2022-08-27T22:48:07.272Z,100164.31
2022-08-27T22:50:35.660Z,100160.69
2022-08-27T22:53:04.216Z,100163.19
2022-08-27T22:55:32.971Z,100164.66
2022-08-27T22:58:02.966Z,100159.78
2022-08-27T23:00:35.372Z,100157.66
2022-08-27T23:03:06.284Z,100166.28
2022-08-27T23:05:41.613Z,100163.22
2022-08-27T23:08:13.174Z,100158.75
2022-08-27T23:10:43.707Z,100150.41
2022-08-27T23:13:14.823Z,100160.59
2022-08-27T23:15:43.501Z,100159.78
2022-08-27T23:18:12.150Z,100165.34
2022-08-27T23:20:41.091Z,100159.41
2022-08-27T23:23:17.450Z,100158.00
2022-08-27T23:26:06.433Z,100157.16
2022-08-27T23:28:36.256Z,100167.34
2022-08-27T23:31:04.775Z,100165.50
2022-08-27T23:33:33.246Z,100168.94
2022-08-27T23:36:01.695Z,100167.53
2022-08-27T23:38:30.253Z,100159.00
2022-08-27T23:40:59.329Z,100160.00
2022-08-27T23:43:28.638Z,100160.19
2022-08-27T23:45:58.630Z,100153.69
2022-08-27T23:48:26.978Z,100161.84
2022-08-27T23:50:55.375Z,100158.38
2022-08-27T23:53:23.880Z,100151.44
2022-08-27T23:55:54.954Z,100155.28
2022-08-27T23:58:23.358Z,100148.84
